Pittsburg, California
Current Conditions -  °F | °C
As of 12:53 AM on Sunday 26 Oct 2014 (Local Time) from KCCR Reporting Station
Broken Clouds Broken Clouds  
Wind Chill: 58°   Ceiling: 9500
Heat Index: 58°   Visibility: 10mi
Dew Point: 54°   Wind: 5mph
Humidity: 87%   Direction: 250°WSW
Pressure: 30.15"   Gusts: NA
Location:  38.02°N, 121.88°W
Report Text: KCCR 260753Z 25004KT 10SM BKN095 14/12 A3015 RMK AO2 SLP195 T01440122 402110144 $
Loading
Personal Weather Stations






























Interactive Weather Map
Tropical Storm Tracking
New forecast layout! Learn more

10-Day Weather Forecast

Advertisements
Track Severe Weather on mobile